sensor_id;sensor_type;location;lat;lon;timestamp;temperature;humidity
27797;DHT22;15177;50.844;4.412;2023-04-06T00:01:37;9.80;91.70
27797;DHT22;15177;50.844;4.412;2023-04-06T00:04:03;9.90;91.20
27797;DHT22;15177;50.844;4.412;2023-04-06T00:06:29;9.70;91.30
27797;DHT22;15177;50.844;4.412;2023-04-06T00:08:55;9.90;91.30
27797;DHT22;15177;50.844;4.412;2023-04-06T00:11:21;9.90;91.20
27797;DHT22;15177;50.844;4.412;2023-04-06T00:13:47;10.00;91.00
27797;DHT22;15177;50.844;4.412;2023-04-06T00:16:13;9.90;90.90
27797;DHT22;15177;50.844;4.412;2023-04-06T00:18:39;9.90;90.60
27797;DHT22;15177;50.844;4.412;2023-04-06T00:21:04;9.70;90.90
27797;DHT22;15177;50.844;4.412;2023-04-06T00:23:30;9.80;91.10
27797;DHT22;15177;50.844;4.412;2023-04-06T00:25:56;9.80;91.20
27797;DHT22;15177;50.844;4.412;2023-04-06T00:28:22;9.60;91.50
27797;DHT22;15177;50.844;4.412;2023-04-06T00:30:54;9.50;91.90
27797;DHT22;15177;50.844;4.412;2023-04-06T00:33:21;9.60;91.50
27797;DHT22;15177;50.844;4.412;2023-04-06T00:35:46;9.60;91.50
27797;DHT22;15177;50.844;4.412;2023-04-06T00:38:12;9.70;91.20
27797;DHT22;15177;50.844;4.412;2023-04-06T00:40:38;9.60;91.20
27797;DHT22;15177;50.844;4.412;2023-04-06T00:43:06;9.50;91.70
27797;DHT22;15177;50.844;4.412;2023-04-06T00:45:32;9.30;92.10
27797;DHT22;15177;50.844;4.412;2023-04-06T00:47:58;9.20;92.70
27797;DHT22;15177;50.844;4.412;2023-04-06T00:50:24;9.30;92.80
27797;DHT22;15177;50.844;4.412;2023-04-06T00:52:50;9.40;92.40
27797;DHT22;15177;50.844;4.412;2023-04-06T00:55:16;9.40;92.70
27797;DHT22;15177;50.844;4.412;2023-04-06T00:57:42;9.40;92.90
27797;DHT22;15177;50.844;4.412;2023-04-06T01:00:08;9.30;92.80
27797;DHT22;15177;50.844;4.412;2023-04-06T01:02:35;9.40;92.90
27797;DHT22;15177;50.844;4.412;2023-04-06T01:05:01;9.50;92.50
27797;DHT22;15177;50.844;4.412;2023-04-06T01:07:27;9.70;92.30
27797;DHT22;15177;50.844;4.412;2023-04-06T01:09:54;10.00;91.70
27797;DHT22;15177;50.844;4.412;2023-04-06T01:12:20;10.00;91.70
27797;DHT22;15177;50.844;4.412;2023-04-06T01:14:45;10.10;91.20
27797;DHT22;15177;50.844;4.412;2023-04-06T01:17:11;10.00;91.10
27797;DHT22;15177;50.844;4.412;2023-04-06T01:19:37;9.80;91.60
27797;DHT22;15177;50.844;4.412;2023-04-06T01:22:03;9.60;92.20
27797;DHT22;15177;50.844;4.412;2023-04-06T01:24:28;9.70;92.30
27797;DHT22;15177;50.844;4.412;2023-04-06T01:26:54;9.80;91.80
27797;DHT22;15177;50.844;4.412;2023-04-06T01:29:20;9.60;91.70
27797;DHT22;15177;50.844;4.412;2023-04-06T01:31:45;9.60;92.10
27797;DHT22;15177;50.844;4.412;2023-04-06T01:34:11;9.70;91.80
27797;DHT22;15177;50.844;4.412;2023-04-06T01:36:37;9.70;91.70
27797;DHT22;15177;50.844;4.412;2023-04-06T01:39:02;9.80;91.70
27797;DHT22;15177;50.844;4.412;2023-04-06T01:41:28;9.90;91.50
27797;DHT22;15177;50.844;4.412;2023-04-06T01:43:54;9.90;91.50
27797;DHT22;15177;50.844;4.412;2023-04-06T01:46:21;9.90;91.40
27797;DHT22;15177;50.844;4.412;2023-04-06T01:48:46;9.70;91.80
27797;DHT22;15177;50.844;4.412;2023-04-06T01:51:12;9.60;92.40
27797;DHT22;15177;50.844;4.412;2023-04-06T01:53:38;9.70;92.40
27797;DHT22;15177;50.844;4.412;2023-04-06T01:56:04;9.80;92.40
27797;DHT22;15177;50.844;4.412;2023-04-06T01:58:29;9.80;92.30
27797;DHT22;15177;50.844;4.412;2023-04-06T02:00:55;9.70;92.40
27797;DHT22;15177;50.844;4.412;2023-04-06T02:03:21;9.70;92.70
27797;DHT22;15177;50.844;4.412;2023-04-06T02:05:46;9.80;92.60
27797;DHT22;15177;50.844;4.412;2023-04-06T02:08:12;9.70;92.40
27797;DHT22;15177;50.844;4.412;2023-04-06T02:10:38;9.60;93.00
27797;DHT22;15177;50.844;4.412;2023-04-06T02:13:03;9.60;93.20
27797;DHT22;15177;50.844;4.412;2023-04-06T02:15:29;9.60;93.30
27797;DHT22;15177;50.844;4.412;2023-04-06T02:17:55;9.60;93.60
27797;DHT22;15177;50.844;4.412;2023-04-06T02:20:21;9.60;93.20
27797;DHT22;15177;50.844;4.412;2023-04-06T02:22:46;9.60;93.70
27797;DHT22;15177;50.844;4.412;2023-04-06T02:25:12;9.60;93.40
27797;DHT22;15177;50.844;4.412;2023-04-06T02:27:38;9.60;93.90
27797;DHT22;15177;50.844;4.412;2023-04-06T02:30:04;9.60;93.90
27797;DHT22;15177;50.844;4.412;2023-04-06T02:32:30;9.40;94.10
27797;DHT22;15177;50.844;4.412;2023-04-06T02:34:55;9.30;94.40
27797;DHT22;15177;50.844;4.412;2023-04-06T02:37:21;9.40;94.80
27797;DHT22;15177;50.844;4.412;2023-04-06T02:39:49;9.40;94.70
27797;DHT22;15177;50.844;4.412;2023-04-06T02:42:15;9.50;94.70
27797;DHT22;15177;50.844;4.412;2023-04-06T02:44:42;9.30;94.50
27797;DHT22;15177;50.844;4.412;2023-04-06T02:47:07;9.50;94.50
27797;DHT22;15177;50.844;4.412;2023-04-06T02:49:33;9.50;94.50
27797;DHT22;15177;50.844;4.412;2023-04-06T02:51:59;9.20;94.70
27797;DHT22;15177;50.844;4.412;2023-04-06T02:54:25;9.30;95.10
27797;DHT22;15177;50.844;4.412;2023-04-06T02:56:51;9.30;95.50
27797;DHT22;15177;50.844;4.412;2023-04-06T02:59:16;9.30;95.30
27797;DHT22;15177;50.844;4.412;2023-04-06T03:01:42;9.20;95.80
27797;DHT22;15177;50.844;4.412;2023-04-06T03:04:08;9.20;95.90
27797;DHT22;15177;50.844;4.412;2023-04-06T03:06:33;9.30;95.70
27797;DHT22;15177;50.844;4.412;2023-04-06T03:08:59;9.20;95.30
27797;DHT22;15177;50.844;4.412;2023-04-06T03:11:24;9.10;95.30
27797;DHT22;15177;50.844;4.412;2023-04-06T03:13:51;9.10;95.70
27797;DHT22;15177;50.844;4.412;2023-04-06T03:16:17;8.90;95.90
27797;DHT22;15177;50.844;4.412;2023-04-06T03:18:43;8.90;96.70
27797;DHT22;15177;50.844;4.412;2023-04-06T03:21:10;8.90;96.70
27797;DHT22;15177;50.844;4.412;2023-04-06T03:23:36;9.00;96.70
27797;DHT22;15177;50.844;4.412;2023-04-06T03:26:02;9.10;96.50
27797;DHT22;15177;50.844;4.412;2023-04-06T03:28:28;9.10;96.40
27797;DHT22;15177;50.844;4.412;2023-04-06T03:30:53;9.10;96.40
27797;DHT22;15177;50.844;4.412;2023-04-06T03:33:19;9.00;96.40
27797;DHT22;15177;50.844;4.412;2023-04-06T03:35:45;8.90;96.90
27797;DHT22;15177;50.844;4.412;2023-04-06T03:38:10;8.80;97.50
27797;DHT22;15177;50.844;4.412;2023-04-06T03:40:36;8.90;97.60
27797;DHT22;15177;50.844;4.412;2023-04-06T03:43:02;8.80;97.30
27797;DHT22;15177;50.844;4.412;2023-04-06T03:45:27;8.80;97.70
27797;DHT22;15177;50.844;4.412;2023-04-06T03:47:53;8.80;97.50
27797;DHT22;15177;50.844;4.412;2023-04-06T03:50:19;8.60;97.90
27797;DHT22;15177;50.844;4.412;2023-04-06T03:52:44;8.70;98.20
27797;DHT22;15177;50.844;4.412;2023-04-06T03:55:10;8.80;98.10
27797;DHT22;15177;50.844;4.412;2023-04-06T03:57:36;8.80;98.00
27797;DHT22;15177;50.844;4.412;2023-04-06T04:00:03;8.80;98.20
27797;DHT22;15177;50.844;4.412;2023-04-06T04:02:29;9.10;97.80
27797;DHT22;15177;50.844;4.412;2023-04-06T04:04:55;9.00;98.00
27797;DHT22;15177;50.844;4.412;2023-04-06T04:07:20;8.80;98.20
27797;DHT22;15177;50.844;4.412;2023-04-06T04:09:46;8.70;99.00
27797;DHT22;15177;50.844;4.412;2023-04-06T04:12:12;8.70;98.90
27797;DHT22;15177;50.844;4.412;2023-04-06T04:14:37;8.80;99.00
27797;DHT22;15177;50.844;4.412;2023-04-06T04:17:03;8.90;99.10
27797;DHT22;15177;50.844;4.412;2023-04-06T04:19:28;9.00;98.90
27797;DHT22;15177;50.844;4.412;2023-04-06T04:21:54;9.20;98.80
27797;DHT22;15177;50.844;4.412;2023-04-06T04:24:20;9.20;98.90
27797;DHT22;15177;50.844;4.412;2023-04-06T04:26:45;9.20;98.30
27797;DHT22;15177;50.844;4.412;2023-04-06T04:29:11;9.30;97.90
27797;DHT22;15177;50.844;4.412;2023-04-06T04:31:37;9.40;97.80
27797;DHT22;15177;50.844;4.412;2023-04-06T04:34:04;9.50;97.50
27797;DHT22;15177;50.844;4.412;2023-04-06T04:36:29;9.50;97.90
27797;DHT22;15177;50.844;4.412;2023-04-06T04:38:55;9.40;97.70
27797;DHT22;15177;50.844;4.412;2023-04-06T04:41:21;9.50;97.70
27797;DHT22;15177;50.844;4.412;2023-04-06T04:43:46;9.60;97.40
27797;DHT22;15177;50.844;4.412;2023-04-06T04:46:12;9.60;97.20
27797;DHT22;15177;50.844;4.412;2023-04-06T04:48:38;9.70;97.40
27797;DHT22;15177;50.844;4.412;2023-04-06T04:51:04;9.70;97.30
27797;DHT22;15177;50.844;4.412;2023-04-06T04:53:30;9.70;97.50
27797;DHT22;15177;50.844;4.412;2023-04-06T04:55:56;9.80;97.30
27797;DHT22;15177;50.844;4.412;2023-04-06T04:58:22;9.90;97.40
27797;DHT22;15177;50.844;4.412;2023-04-06T05:00:47;10.00;97.10
27797;DHT22;15177;50.844;4.412;2023-04-06T05:03:23;10.00;97.00
27797;DHT22;15177;50.844;4.412;2023-04-06T05:05:49;9.90;97.50
27797;DHT22;15177;50.844;4.412;2023-04-06T05:08:16;9.80;97.60
27797;DHT22;15177;50.844;4.412;2023-04-06T05:10:41;9.90;97.90
27797;DHT22;15177;50.844;4.412;2023-04-06T05:13:07;9.90;97.80
27797;DHT22;15177;50.844;4.412;2023-04-06T05:15:33;9.90;97.80
27797;DHT22;15177;50.844;4.412;2023-04-06T05:18:07;9.90;98.10
27797;DHT22;15177;50.844;4.412;2023-04-06T05:20:34;9.90;98.20
27797;DHT22;15177;50.844;4.412;2023-04-06T05:23:00;10.00;98.10
27797;DHT22;15177;50.844;4.412;2023-04-06T05:25:25;9.90;98.20
27797;DHT22;15177;50.844;4.412;2023-04-06T05:27:52;9.90;98.80
27797;DHT22;15177;50.844;4.412;2023-04-06T05:30:17;9.90;98.80
27797;DHT22;15177;50.844;4.412;2023-04-06T05:32:43;9.90;99.00
27797;DHT22;15177;50.844;4.412;2023-04-06T05:35:10;9.90;99.20
27797;DHT22;15177;50.844;4.412;2023-04-06T05:37:36;10.00;99.10
27797;DHT22;15177;50.844;4.412;2023-04-06T05:40:01;9.90;99.40
27797;DHT22;15177;50.844;4.412;2023-04-06T05:42:28;10.00;99.20
27797;DHT22;15177;50.844;4.412;2023-04-06T05:44:53;10.20;98.90
27797;DHT22;15177;50.844;4.412;2023-04-06T05:47:20;10.20;99.20
27797;DHT22;15177;50.844;4.412;2023-04-06T05:49:47;10.10;99.40
27797;DHT22;15177;50.844;4.412;2023-04-06T05:52:13;10.00;99.70
27797;DHT22;15177;50.844;4.412;2023-04-06T05:54:39;10.10;99.90
27797;DHT22;15177;50.844;4.412;2023-04-06T05:57:04;10.10;99.90
27797;DHT22;15177;50.844;4.412;2023-04-06T05:59:31;10.10;99.90
27797;DHT22;15177;50.844;4.412;2023-04-06T06:01:57;10.20;99.90
27797;DHT22;15177;50.844;4.412;2023-04-06T06:04:22;10.20;99.90
27797;DHT22;15177;50.844;4.412;2023-04-06T06:06:48;10.10;99.90
27797;DHT22;15177;50.844;4.412;2023-04-06T06:09:14;10.10;99.90
27797;DHT22;15177;50.844;4.412;2023-04-06T06:11:40;10.10;99.90
27797;DHT22;15177;50.844;4.412;2023-04-06T06:14:06;10.10;99.90
27797;DHT22;15177;50.844;4.412;2023-04-06T06:16:32;10.30;99.90
27797;DHT22;15177;50.844;4.412;2023-04-06T06:18:57;10.50;99.90
27797;DHT22;15177;50.844;4.412;2023-04-06T06:21:23;10.50;99.90
27797;DHT22;15177;50.844;4.412;2023-04-06T06:23:49;10.50;99.90
27797;DHT22;15177;50.844;4.412;2023-04-06T06:26:16;10.50;99.90
27797;DHT22;15177;50.844;4.412;2023-04-06T06:28:42;10.50;99.90
27797;DHT22;15177;50.844;4.412;2023-04-06T06:31:07;10.60;99.90
27797;DHT22;15177;50.844;4.412;2023-04-06T06:33:33;10.70;99.90
27797;DHT22;15177;50.844;4.412;2023-04-06T06:35:58;10.60;99.90
27797;DHT22;15177;50.844;4.412;2023-04-06T06:38:24;10.60;99.90
27797;DHT22;15177;50.844;4.412;2023-04-06T06:40:50;10.50;99.90
27797;DHT22;15177;50.844;4.412;2023-04-06T06:43:16;10.60;99.90
27797;DHT22;15177;50.844;4.412;2023-04-06T06:45:43;10.60;99.90
27797;DHT22;15177;50.844;4.412;2023-04-06T06:48:09;10.60;99.90
27797;DHT22;15177;50.844;4.412;2023-04-06T06:50:36;10.60;99.90
27797;DHT22;15177;50.844;4.412;2023-04-06T06:53:02;10.60;99.90
27797;DHT22;15177;50.844;4.412;2023-04-06T06:55:27;10.50;99.90
27797;DHT22;15177;50.844;4.412;2023-04-06T06:57:53;10.50;99.90
27797;DHT22;15177;50.844;4.412;2023-04-06T07:00:19;10.50;99.90
27797;DHT22;15177;50.844;4.412;2023-04-06T07:02:47;10.40;99.90
27797;DHT22;15177;50.844;4.412;2023-04-06T07:05:13;10.40;99.90
27797;DHT22;15177;50.844;4.412;2023-04-06T07:07:38;10.40;99.90
27797;DHT22;15177;50.844;4.412;2023-04-06T07:10:06;10.40;99.90
27797;DHT22;15177;50.844;4.412;2023-04-06T07:12:32;10.30;99.90
27797;DHT22;15177;50.844;4.412;2023-04-06T07:14:57;10.20;99.90
27797;DHT22;15177;50.844;4.412;2023-04-06T07:17:23;10.10;99.90
27797;DHT22;15177;50.844;4.412;2023-04-06T07:19:49;10.10;99.90
27797;DHT22;15177;50.844;4.412;2023-04-06T07:22:14;10.20;99.90
27797;DHT22;15177;50.844;4.412;2023-04-06T07:24:40;10.20;99.90
27797;DHT22;15177;50.844;4.412;2023-04-06T07:27:06;10.20;99.90
27797;DHT22;15177;50.844;4.412;2023-04-06T07:29:32;10.30;99.90
27797;DHT22;15177;50.844;4.412;2023-04-06T07:31:58;10.30;99.90
27797;DHT22;15177;50.844;4.412;2023-04-06T07:34:24;10.40;99.90
27797;DHT22;15177;50.844;4.412;2023-04-06T07:36:49;10.40;99.90
27797;DHT22;15177;50.844;4.412;2023-04-06T07:39:15;10.40;99.90
27797;DHT22;15177;50.844;4.412;2023-04-06T07:41:41;10.40;99.90
27797;DHT22;15177;50.844;4.412;2023-04-06T07:44:07;10.40;99.90
27797;DHT22;15177;50.844;4.412;2023-04-06T07:46:32;10.40;99.90
27797;DHT22;15177;50.844;4.412;2023-04-06T07:48:59;10.40;99.90
27797;DHT22;15177;50.844;4.412;2023-04-06T07:51:26;10.50;99.90
27797;DHT22;15177;50.844;4.412;2023-04-06T07:53:52;10.40;99.90
27797;DHT22;15177;50.844;4.412;2023-04-06T07:56:18;10.50;99.90
27797;DHT22;15177;50.844;4.412;2023-04-06T07:58:44;10.50;99.90
27797;DHT22;15177;50.844;4.412;2023-04-06T08:01:10;10.50;99.90
27797;DHT22;15177;50.844;4.412;2023-04-06T08:03:36;10.40;99.90
27797;DHT22;15177;50.844;4.412;2023-04-06T08:06:02;10.40;99.90
27797;DHT22;15177;50.844;4.412;2023-04-06T08:08:29;10.30;99.90
27797;DHT22;15177;50.844;4.412;2023-04-06T08:10:56;10.20;99.90
27797;DHT22;15177;50.844;4.412;2023-04-06T08:13:21;10.20;99.90
27797;DHT22;15177;50.844;4.412;2023-04-06T08:15:47;10.10;99.90
27797;DHT22;15177;50.844;4.412;2023-04-06T08:18:13;10.00;99.90
27797;DHT22;15177;50.844;4.412;2023-04-06T08:20:39;10.00;99.90
27797;DHT22;15177;50.844;4.412;2023-04-06T08:23:05;10.20;99.90
27797;DHT22;15177;50.844;4.412;2023-04-06T08:25:37;10.30;99.90
27797;DHT22;15177;50.844;4.412;2023-04-06T08:28:04;10.40;99.90
27797;DHT22;15177;50.844;4.412;2023-04-06T08:30:30;10.50;99.90
27797;DHT22;15177;50.844;4.412;2023-04-06T08:32:55;10.20;99.90
27797;DHT22;15177;50.844;4.412;2023-04-06T08:35:21;10.30;99.90
27797;DHT22;15177;50.844;4.412;2023-04-06T08:37:47;10.30;99.90
27797;DHT22;15177;50.844;4.412;2023-04-06T08:40:13;10.40;99.90
27797;DHT22;15177;50.844;4.412;2023-04-06T08:42:40;10.40;99.90
27797;DHT22;15177;50.844;4.412;2023-04-06T08:45:09;10.20;99.90
27797;DHT22;15177;50.844;4.412;2023-04-06T08:47:36;10.20;99.90
27797;DHT22;15177;50.844;4.412;2023-04-06T08:50:05;9.80;99.90
27797;DHT22;15177;50.844;4.412;2023-04-06T08:52:32;10.00;99.90
27797;DHT22;15177;50.844;4.412;2023-04-06T08:54:59;10.20;99.90
27797;DHT22;15177;50.844;4.412;2023-04-06T08:57:25;10.30;99.90
27797;DHT22;15177;50.844;4.412;2023-04-06T08:59:52;10.30;99.90
27797;DHT22;15177;50.844;4.412;2023-04-06T09:02:18;10.30;99.90
27797;DHT22;15177;50.844;4.412;2023-04-06T09:04:53;9.80;99.90
27797;DHT22;15177;50.844;4.412;2023-04-06T09:07:19;9.90;99.90
27797;DHT22;15177;50.844;4.412;2023-04-06T09:09:45;10.10;99.90
27797;DHT22;15177;50.844;4.412;2023-04-06T09:12:31;10.00;99.90
27797;DHT22;15177;50.844;4.412;2023-04-06T09:14:58;10.10;99.90
27797;DHT22;15177;50.844;4.412;2023-04-06T09:17:28;10.20;99.90
27797;DHT22;15177;50.844;4.412;2023-04-06T09:19:54;9.90;99.90
27797;DHT22;15177;50.844;4.412;2023-04-06T09:22:21;10.00;99.90
27797;DHT22;15177;50.844;4.412;2023-04-06T09:24:50;10.10;99.90
27797;DHT22;15177;50.844;4.412;2023-04-06T09:27:17;9.80;99.90
27797;DHT22;15177;50.844;4.412;2023-04-06T09:29:43;10.00;99.90
27797;DHT22;15177;50.844;4.412;2023-04-06T09:32:10;10.00;99.90
27797;DHT22;15177;50.844;4.412;2023-04-06T09:34:39;9.80;99.90
27797;DHT22;15177;50.844;4.412;2023-04-06T09:37:18;9.90;99.90
27797;DHT22;15177;50.844;4.412;2023-04-06T09:39:45;9.90;99.90
27797;DHT22;15177;50.844;4.412;2023-04-06T09:42:26;9.80;99.90
27797;DHT22;15177;50.844;4.412;2023-04-06T09:44:52;9.60;99.90
27797;DHT22;15177;50.844;4.412;2023-04-06T09:47:18;9.70;99.90
27797;DHT22;15177;50.844;4.412;2023-04-06T09:49:46;9.90;99.90
27797;DHT22;15177;50.844;4.412;2023-04-06T09:52:13;9.80;99.90
27797;DHT22;15177;50.844;4.412;2023-04-06T09:54:40;9.70;99.90
27797;DHT22;15177;50.844;4.412;2023-04-06T09:57:25;9.80;99.90
27797;DHT22;15177;50.844;4.412;2023-04-06T10:00:01;9.70;99.90
27797;DHT22;15177;50.844;4.412;2023-04-06T10:02:41;9.50;99.90
27797;DHT22;15177;50.844;4.412;2023-04-06T10:07:57;9.90;99.90
27797;DHT22;15177;50.844;4.412;2023-04-06T10:10:24;10.10;99.90
27797;DHT22;15177;50.844;4.412;2023-04-06T10:12:50;10.10;99.90
27797;DHT22;15177;50.844;4.412;2023-04-06T10:15:17;10.00;99.90
27797;DHT22;15177;50.844;4.412;2023-04-06T10:17:43;10.00;99.90
27797;DHT22;15177;50.844;4.412;2023-04-06T10:22:45;10.10;99.90
27797;DHT22;15177;50.844;4.412;2023-04-06T10:25:29;10.20;99.90
27797;DHT22;15177;50.844;4.412;2023-04-06T10:28:08;10.30;99.90
27797;DHT22;15177;50.844;4.412;2023-04-06T10:30:36;10.40;99.90
27797;DHT22;15177;50.844;4.412;2023-04-06T10:33:14;10.50;99.90
27797;DHT22;15177;50.844;4.412;2023-04-06T10:35:40;10.30;99.90
27797;DHT22;15177;50.844;4.412;2023-04-06T10:38:06;10.30;99.90
27797;DHT22;15177;50.844;4.412;2023-04-06T10:40:36;10.30;99.90
27797;DHT22;15177;50.844;4.412;2023-04-06T10:43:18;10.50;99.90
27797;DHT22;15177;50.844;4.412;2023-04-06T10:45:44;10.40;99.90
27797;DHT22;15177;50.844;4.412;2023-04-06T10:48:17;10.40;99.90
27797;DHT22;15177;50.844;4.412;2023-04-06T10:50:48;10.50;99.90
27797;DHT22;15177;50.844;4.412;2023-04-06T10:55:47;10.50;99.90
27797;DHT22;15177;50.844;4.412;2023-04-06T10:58:14;10.60;99.90
27797;DHT22;15177;50.844;4.412;2023-04-06T11:00:49;10.60;99.90
27797;DHT22;15177;50.844;4.412;2023-04-06T11:03:15;10.60;99.90
27797;DHT22;15177;50.844;4.412;2023-04-06T11:05:45;10.60;99.90
27797;DHT22;15177;50.844;4.412;2023-04-06T11:08:22;10.70;99.90
27797;DHT22;15177;50.844;4.412;2023-04-06T11:10:48;10.70;99.90
27797;DHT22;15177;50.844;4.412;2023-04-06T11:13:14;10.80;99.90
27797;DHT22;15177;50.844;4.412;2023-04-06T11:15:40;10.70;99.90
27797;DHT22;15177;50.844;4.412;2023-04-06T11:18:06;10.70;99.90
27797;DHT22;15177;50.844;4.412;2023-04-06T11:20:32;10.60;99.90
27797;DHT22;15177;50.844;4.412;2023-04-06T11:22:57;10.70;99.90
27797;DHT22;15177;50.844;4.412;2023-04-06T11:25:24;10.60;99.90
27797;DHT22;15177;50.844;4.412;2023-04-06T11:27:52;10.60;99.90
27797;DHT22;15177;50.844;4.412;2023-04-06T11:30:18;10.60;99.90
27797;DHT22;15177;50.844;4.412;2023-04-06T11:32:45;10.50;99.90
27797;DHT22;15177;50.844;4.412;2023-04-06T11:35:24;10.70;99.90
27797;DHT22;15177;50.844;4.412;2023-04-06T11:37:50;10.70;99.90
27797;DHT22;15177;50.844;4.412;2023-04-06T11:40:21;10.60;99.90
27797;DHT22;15177;50.844;4.412;2023-04-06T11:42:55;10.90;99.90
27797;DHT22;15177;50.844;4.412;2023-04-06T11:45:21;10.90;99.90
27797;DHT22;15177;50.844;4.412;2023-04-06T11:47:56;11.20;99.90
27797;DHT22;15177;50.844;4.412;2023-04-06T11:50:23;11.30;99.90
27797;DHT22;15177;50.844;4.412;2023-04-06T11:52:58;11.10;99.90
27797;DHT22;15177;50.844;4.412;2023-04-06T11:55:25;11.10;99.90
27797;DHT22;15177;50.844;4.412;2023-04-06T11:57:51;11.30;99.90
27797;DHT22;15177;50.844;4.412;2023-04-06T12:00:17;11.40;99.90
27797;DHT22;15177;50.844;4.412;2023-04-06T12:02:47;11.50;99.90
27797;DHT22;15177;50.844;4.412;2023-04-06T12:05:13;11.20;99.90
27797;DHT22;15177;50.844;4.412;2023-04-06T12:07:39;11.10;99.90
27797;DHT22;15177;50.844;4.412;2023-04-06T12:10:05;10.90;99.90
27797;DHT22;15177;50.844;4.412;2023-04-06T12:12:31;11.10;99.90
27797;DHT22;15177;50.844;4.412;2023-04-06T12:14:57;11.20;99.90
27797;DHT22;15177;50.844;4.412;2023-04-06T12:17:23;11.40;99.90
27797;DHT22;15177;50.844;4.412;2023-04-06T12:19:48;11.50;99.90
27797;DHT22;15177;50.844;4.412;2023-04-06T12:22:14;11.40;99.90
27797;DHT22;15177;50.844;4.412;2023-04-06T12:24:40;11.30;99.90
27797;DHT22;15177;50.844;4.412;2023-04-06T12:27:06;11.40;99.90
27797;DHT22;15177;50.844;4.412;2023-04-06T12:29:32;11.40;99.90
27797;DHT22;15177;50.844;4.412;2023-04-06T12:31:58;11.40;99.90
27797;DHT22;15177;50.844;4.412;2023-04-06T12:34:23;11.20;99.90
27797;DHT22;15177;50.844;4.412;2023-04-06T12:36:49;11.20;99.90
27797;DHT22;15177;50.844;4.412;2023-04-06T12:39:15;10.90;99.90
27797;DHT22;15177;50.844;4.412;2023-04-06T12:41:42;11.10;99.90
27797;DHT22;15177;50.844;4.412;2023-04-06T12:44:07;11.10;99.90
27797;DHT22;15177;50.844;4.412;2023-04-06T12:46:33;11.20;99.90
27797;DHT22;15177;50.844;4.412;2023-04-06T12:48:59;11.20;99.90
27797;DHT22;15177;50.844;4.412;2023-04-06T12:51:27;11.20;99.90
27797;DHT22;15177;50.844;4.412;2023-04-06T12:53:53;11.20;99.90
27797;DHT22;15177;50.844;4.412;2023-04-06T12:56:19;10.90;99.90
27797;DHT22;15177;50.844;4.412;2023-04-06T12:58:46;10.90;99.90
27797;DHT22;15177;50.844;4.412;2023-04-06T13:01:12;10.60;99.90
27797;DHT22;15177;50.844;4.412;2023-04-06T13:03:39;10.70;99.90
27797;DHT22;15177;50.844;4.412;2023-04-06T13:06:04;10.70;99.90
27797;DHT22;15177;50.844;4.412;2023-04-06T13:08:30;10.70;99.90
27797;DHT22;15177;50.844;4.412;2023-04-06T13:10:56;10.40;99.90
27797;DHT22;15177;50.844;4.412;2023-04-06T13:13:29;10.50;99.90
27797;DHT22;15177;50.844;4.412;2023-04-06T13:15:59;10.50;99.90
27797;DHT22;15177;50.844;4.412;2023-04-06T13:18:26;10.50;99.90
27797;DHT22;15177;50.844;4.412;2023-04-06T13:20:52;10.40;99.90
27797;DHT22;15177;50.844;4.412;2023-04-06T13:23:18;10.30;99.90
27797;DHT22;15177;50.844;4.412;2023-04-06T13:25:43;10.40;99.90
27797;DHT22;15177;50.844;4.412;2023-04-06T13:28:09;10.50;99.90
27797;DHT22;15177;50.844;4.412;2023-04-06T13:30:35;10.50;99.90
27797;DHT22;15177;50.844;4.412;2023-04-06T13:33:02;10.40;99.90
27797;DHT22;15177;50.844;4.412;2023-04-06T13:35:27;10.40;99.90
27797;DHT22;15177;50.844;4.412;2023-04-06T13:37:53;10.50;99.90
27797;DHT22;15177;50.844;4.412;2023-04-06T13:40:19;10.40;99.90
27797;DHT22;15177;50.844;4.412;2023-04-06T13:42:46;10.50;99.90
27797;DHT22;15177;50.844;4.412;2023-04-06T13:45:12;10.60;99.90
27797;DHT22;15177;50.844;4.412;2023-04-06T13:47:38;10.60;99.90
27797;DHT22;15177;50.844;4.412;2023-04-06T13:50:04;10.60;99.90
27797;DHT22;15177;50.844;4.412;2023-04-06T13:52:30;10.80;99.90
27797;DHT22;15177;50.844;4.412;2023-04-06T13:54:56;10.80;99.90
27797;DHT22;15177;50.844;4.412;2023-04-06T13:57:21;10.80;99.90
27797;DHT22;15177;50.844;4.412;2023-04-06T13:59:47;10.70;99.90
27797;DHT22;15177;50.844;4.412;2023-04-06T14:02:15;10.70;99.90
27797;DHT22;15177;50.844;4.412;2023-04-06T14:04:40;10.80;99.90
27797;DHT22;15177;50.844;4.412;2023-04-06T14:07:06;10.80;99.90
27797;DHT22;15177;50.844;4.412;2023-04-06T14:09:33;10.80;99.90
27797;DHT22;15177;50.844;4.412;2023-04-06T14:11:58;10.70;99.90
27797;DHT22;15177;50.844;4.412;2023-04-06T14:14:24;10.70;99.90
27797;DHT22;15177;50.844;4.412;2023-04-06T14:16:51;10.60;99.90
27797;DHT22;15177;50.844;4.412;2023-04-06T14:19:17;10.70;99.90
27797;DHT22;15177;50.844;4.412;2023-04-06T14:21:46;10.70;99.90
27797;DHT22;15177;50.844;4.412;2023-04-06T14:24:12;10.80;99.90
27797;DHT22;15177;50.844;4.412;2023-04-06T14:26:39;10.50;99.90
27797;DHT22;15177;50.844;4.412;2023-04-06T14:29:07;10.70;99.90
27797;DHT22;15177;50.844;4.412;2023-04-06T14:31:32;10.80;99.90
27797;DHT22;15177;50.844;4.412;2023-04-06T14:34:01;10.70;99.90
27797;DHT22;15177;50.844;4.412;2023-04-06T14:36:27;10.80;99.90
27797;DHT22;15177;50.844;4.412;2023-04-06T14:38:56;10.90;99.90
27797;DHT22;15177;50.844;4.412;2023-04-06T14:41:24;10.90;99.90
27797;DHT22;15177;50.844;4.412;2023-04-06T14:43:50;10.80;99.90
27797;DHT22;15177;50.844;4.412;2023-04-06T14:46:17;10.70;99.90
27797;DHT22;15177;50.844;4.412;2023-04-06T14:48:46;10.70;99.90
27797;DHT22;15177;50.844;4.412;2023-04-06T14:51:13;10.80;99.90
27797;DHT22;15177;50.844;4.412;2023-04-06T14:53:38;10.80;99.90
27797;DHT22;15177;50.844;4.412;2023-04-06T14:56:05;10.90;99.90
27797;DHT22;15177;50.844;4.412;2023-04-06T14:58:30;11.00;99.90
27797;DHT22;15177;50.844;4.412;2023-04-06T15:01:00;11.10;99.90
27797;DHT22;15177;50.844;4.412;2023-04-06T15:03:27;11.20;99.90
27797;DHT22;15177;50.844;4.412;2023-04-06T15:05:54;11.30;99.90
27797;DHT22;15177;50.844;4.412;2023-04-06T15:08:19;11.20;99.90
27797;DHT22;15177;50.844;4.412;2023-04-06T15:10:49;11.30;99.90
27797;DHT22;15177;50.844;4.412;2023-04-06T15:13:15;11.30;99.90
27797;DHT22;15177;50.844;4.412;2023-04-06T15:15:41;11.40;99.90
27797;DHT22;15177;50.844;4.412;2023-04-06T15:18:07;11.60;99.90
27797;DHT22;15177;50.844;4.412;2023-04-06T15:20:33;11.70;99.90
27797;DHT22;15177;50.844;4.412;2023-04-06T15:23:01;11.80;99.90
27797;DHT22;15177;50.844;4.412;2023-04-06T15:25:27;11.90;99.90
27797;DHT22;15177;50.844;4.412;2023-04-06T15:27:53;12.00;99.90
27797;DHT22;15177;50.844;4.412;2023-04-06T15:30:20;12.00;99.90
27797;DHT22;15177;50.844;4.412;2023-04-06T15:32:56;12.10;99.90
27797;DHT22;15177;50.844;4.412;2023-04-06T15:35:23;12.10;99.90
27797;DHT22;15177;50.844;4.412;2023-04-06T15:37:48;12.10;99.90
27797;DHT22;15177;50.844;4.412;2023-04-06T15:40:14;12.20;99.90
27797;DHT22;15177;50.844;4.412;2023-04-06T15:42:41;12.30;99.90